Time;durP1;ratioP1;P1;durP2;ratioP2;P2;SDS_P1;SDS_P2;PMS_P1;PMS_P2;Temp;Humidity;BMP_temperature;BMP_pressure;BME280_temperature;BME280_humidity;BME280_pressure;Samples;Min_cycle;Max_cycle;Signal;HPM_P1;HPM_P2
2022/11/27 00:00:16;;;;;;;13.73;8.90;;;6.80;99.90;;;;;;4897800;28;94755;-32
2022/11/27 00:02:42;;;;;;;22.45;10.13;;;6.80;99.90;;;;;;4898545;28;96393;-32
2022/11/27 00:05:08;;;;;;;15.30;8.45;;;6.80;99.90;;;;;;4896884;28;93536;-32
2022/11/27 00:07:33;;;;;;;15.52;8.77;;;6.70;99.90;;;;;;4898547;28;94072;-34
2022/11/27 00:09:59;;;;;;;17.38;8.57;;;6.70;99.90;;;;;;4898402;28;95092;-31
2022/11/27 00:12:24;;;;;;;16.35;9.00;;;6.70;99.90;;;;;;4897761;28;94891;-34
2022/11/27 00:14:50;;;;;;;14.75;8.98;;;6.70;99.90;;;;;;4898672;28;94115;-31
2022/11/27 00:17:15;;;;;;;20.50;10.27;;;6.70;99.90;;;;;;4897695;28;94126;-32
2022/11/27 00:19:41;;;;;;;20.98;9.57;;;6.60;99.90;;;;;;4898181;28;94855;-33
2022/11/27 00:22:07;;;;;;;18.38;10.45;;;6.50;99.90;;;;;;4898448;28;94502;-32
2022/11/27 00:24:32;;;;;;;14.73;9.75;;;6.50;99.90;;;;;;4897838;28;94470;-34
2022/11/27 00:26:58;;;;;;;19.00;10.65;;;6.50;99.90;;;;;;4898315;28;94112;-34
2022/11/27 00:29:27;;;;;;;18.60;9.07;;;6.40;99.90;;;;;;4899543;28;95393;-36
2022/11/27 00:31:54;;;;;;;19.55;10.60;;;6.40;99.90;;;;;;4902067;28;95472;-35
2022/11/27 00:34:20;;;;;;;21.67;11.30;;;6.30;99.90;;;;;;4901171;28;92910;-32
2022/11/27 00:36:45;;;;;;;20.80;10.23;;;6.40;99.90;;;;;;4900002;28;94880;-33
2022/11/27 00:39:11;;;;;;;25.67;10.77;;;6.30;99.90;;;;;;4900645;28;95990;-31
2022/11/27 00:41:37;;;;;;;22.73;11.80;;;6.30;99.90;;;;;;4900993;28;94429;-32
2022/11/27 00:44:03;;;;;;;14.48;11.75;;;6.30;99.90;;;;;;4901093;28;92215;-31
2022/11/27 00:46:30;;;;;;;28.10;11.52;;;6.30;99.90;;;;;;4901221;28;91697;-31
2022/11/27 00:49:01;;;;;;;15.13;10.67;;;6.20;99.90;;;;;;4900281;28;94666;-32
2022/11/27 00:51:27;;;;;;;18.17;10.85;;;6.20;99.90;;;;;;4900514;28;96649;-32
2022/11/27 00:53:54;;;;;;;19.90;10.15;;;6.20;99.90;;;;;;4900048;28;95464;-34
2022/11/27 00:56:28;;;;;;;17.95;10.20;;;6.10;99.90;;;;;;4901087;28;93150;-31
2022/11/27 00:58:54;;;;;;;13.07;9.98;;;6.10;99.90;;;;;;4900100;28;94777;-32
2022/11/27 01:01:22;;;;;;;16.52;11.30;;;6.10;99.90;;;;;;4899889;28;94583;-32
2022/11/27 01:03:49;;;;;;;15.43;10.98;;;6.10;99.90;;;;;;4901367;28;93441;-32
2022/11/27 01:06:16;;;;;;;23.63;11.38;;;6.10;99.90;;;;;;4900592;28;93127;-32
2022/11/27 01:08:42;;;;;;;16.63;10.30;;;6.10;99.90;;;;;;4899239;28;94763;-33
2022/11/27 01:11:17;;;;;;;19.05;10.23;;;6.10;99.90;;;;;;4900956;28;94693;-33
2022/11/27 01:13:43;;;;;;;17.55;11.68;;;6.10;99.90;;;;;;4900091;28;93794;-32
2022/11/27 01:16:11;;;;;;;20.60;10.55;;;6.10;99.90;;;;;;4899596;28;93436;-34
2022/11/27 01:18:39;;;;;;;19.20;11.27;;;6.20;99.90;;;;;;4899341;28;94629;-34
2022/11/27 01:21:06;;;;;;;;;;;6.20;99.90;;;;;;4901934;28;93456;-31
2022/11/27 01:23:32;;;;;;;19.50;10.52;;;6.20;99.90;;;;;;4902034;28;93637;-32
2022/11/27 01:26:00;;;;;;;14.25;9.77;;;6.20;99.90;;;;;;4900648;28;93072;-32
2022/11/27 01:28:26;;;;;;;16.52;11.38;;;6.20;99.90;;;;;;4899944;28;94695;-34
2022/11/27 01:30:52;;;;;;;20.45;11.85;;;6.20;99.90;;;;;;4899925;28;94149;-32
2022/11/27 01:33:18;;;;;;;19.55;10.90;;;6.10;99.90;;;;;;4899278;28;92773;-32
2022/11/27 01:35:53;;;;;;;15.30;9.93;;;6.00;99.90;;;;;;4900255;28;94380;-32
2022/11/27 01:38:18;;;;;;;19.77;10.23;;;6.00;99.90;;;;;;4900530;28;94546;-34
2022/11/27 01:40:44;;;;;;;21.40;11.07;;;6.00;99.90;;;;;;4899088;28;95140;-32
2022/11/27 01:43:14;;;;;;;16.80;10.95;;;6.00;99.90;;;;;;4899433;28;96023;-33
2022/11/27 01:45:40;;;;;;;21.75;10.35;;;6.10;99.90;;;;;;4899960;28;94309;-32
2022/11/27 01:48:09;;;;;;;21.70;10.50;;;6.00;99.90;;;;;;4898869;28;94659;-32
2022/11/27 01:50:38;;;;;;;17.88;12.02;;;6.00;99.90;;;;;;4899091;28;94610;-34
2022/11/27 01:53:14;;;;;;;17.02;10.15;;;6.00;99.90;;;;;;4899950;28;93760;-34
2022/11/27 01:55:54;;;;;;;23.90;10.48;;;5.90;99.90;;;;;;4899700;28;94096;-31
2022/11/27 01:58:23;;;;;;;15.05;10.13;;;5.90;99.90;;;;;;4899734;28;95228;-33
2022/11/27 02:00:49;;;;;;;20.60;11.63;;;5.90;99.90;;;;;;4900285;28;94083;-33
2022/11/27 02:03:15;;;;;;;13.30;9.80;;;5.90;99.90;;;;;;4899518;28;93066;-31
2022/11/27 02:05:41;;;;;;;18.20;11.65;;;5.80;99.90;;;;;;4900209;28;94036;-33
2022/11/27 02:08:09;;;;;;;17.33;10.77;;;5.70;99.90;;;;;;4898243;28;95502;-31
2022/11/27 02:10:49;;;;;;;16.27;11.10;;;5.70;99.90;;;;;;4898765;28;95561;-32
2022/11/27 02:13:47;;;;;;;19.70;11.50;;;5.70;99.90;;;;;;4897918;28;94429;-32
2022/11/27 02:16:35;;;;;;;16.92;11.63;;;5.60;99.90;;;;;;4878432;28;93337;-34
2022/11/27 02:19:18;;;;;;;20.30;11.75;;;5.60;99.90;;;;;;4905275;28;94729;-33
2022/11/27 02:21:57;;;;;;;19.58;10.38;;;5.60;99.90;;;;;;4917902;28;94604;-34
2022/11/27 02:25:17;;;;;;;23.88;12.30;;;5.60;99.90;;;;;;4918581;28;94955;-36
2022/11/27 02:28:07;;;;;;;22.63;9.52;;;5.60;99.90;;;;;;4881537;28;92570;-33
2022/11/27 02:30:39;;;;;;;25.50;10.80;;;5.60;99.90;;;;;;4893620;28;94717;-33
2022/11/27 02:33:10;;;;;;;20.88;10.27;;;5.60;99.90;;;;;;4918487;28;94493;-33
2022/11/27 02:35:55;;;;;;;19.35;10.43;;;5.60;99.90;;;;;;4917039;28;94381;-31
2022/11/27 02:38:29;;;;;;;18.60;9.57;;;5.70;99.90;;;;;;4918334;28;93942;-31
2022/11/27 02:41:08;;;;;;;19.27;9.85;;;5.60;99.90;;;;;;4919405;28;94697;-33
2022/11/27 02:43:38;;;;;;;17.83;9.52;;;5.60;99.90;;;;;;4918663;28;94174;-32
2022/11/27 02:46:07;;;;;;;18.40;10.48;;;5.60;99.90;;;;;;4918958;28;92210;-32
2022/11/27 02:48:40;;;;;;;19.08;10.20;;;5.60;99.90;;;;;;4918018;28;94512;-34
2022/11/27 02:51:07;;;;;;;17.38;9.27;;;5.70;99.90;;;;;;4917774;28;95086;-31
2022/11/27 02:53:38;;;;;;;10.52;8.95;;;5.70;99.90;;;;;;4918106;28;94600;-33
2022/11/27 02:56:07;;;;;;;16.77;8.93;;;5.60;99.90;;;;;;4918708;28;93168;-32
2022/11/27 02:58:35;;;;;;;16.80;9.57;;;5.60;99.90;;;;;;4917846;28;93058;-34
2022/11/27 03:01:02;;;;;;;15.80;10.75;;;5.60;99.90;;;;;;4918445;28;95376;-33
2022/11/27 03:03:34;;;;;;;18.33;9.60;;;5.60;99.90;;;;;;4918030;28;95286;-32
2022/11/27 03:06:05;;;;;;;18.33;9.68;;;5.60;99.90;;;;;;4919250;28;94597;-33
2022/11/27 03:08:48;;;;;;;17.10;9.68;;;5.50;99.90;;;;;;4917996;28;92164;-31
2022/11/27 03:11:15;;;;;;;17.85;9.27;;;5.50;99.90;;;;;;4918549;28;94294;-33
2022/11/27 03:13:51;;;;;;;17.60;9.90;;;5.60;99.90;;;;;;4917945;28;94450;-33
2022/11/27 03:16:43;;;;;;;21.02;9.82;;;5.60;99.90;;;;;;4918415;28;93888;-32
2022/11/27 03:19:29;;;;;;;12.30;8.38;;;5.60;99.90;;;;;;4918098;28;92478;-32
2022/11/27 03:22:00;;;;;;;12.52;8.73;;;5.50;99.90;;;;;;4918354;28;94954;-34
2022/11/27 03:24:27;;;;;;;13.30;8.18;;;5.60;99.90;;;;;;4916924;28;94341;-31
2022/11/27 03:26:53;;;;;;;25.43;9.80;;;5.50;99.90;;;;;;4918494;28;93624;-32
2022/11/27 03:29:24;;;;;;;15.57;9.95;;;5.50;99.90;;;;;;4918408;28;94613;-31
2022/11/27 03:31:50;;;;;;;19.08;7.93;;;5.40;99.90;;;;;;4918192;28;94542;-32
2022/11/27 03:34:16;;;;;;;19.45;9.00;;;5.40;99.90;;;;;;4917651;28;94811;-31
2022/11/27 03:36:43;;;;;;;15.27;9.18;;;5.50;99.90;;;;;;4918283;28;93845;-33
2022/11/27 03:39:09;;;;;;;21.08;9.35;;;5.50;99.90;;;;;;4918490;28;92710;-31
2022/11/27 03:41:51;;;;;;;12.63;8.68;;;5.40;99.90;;;;;;4917222;28;94803;-33
2022/11/27 03:44:41;;;;;;;29.90;11.18;;;5.40;99.90;;;;;;4918859;28;94713;-31
2022/11/27 03:47:10;;;;;;;13.93;9.20;;;5.50;99.90;;;;;;4917957;28;94503;-31
2022/11/27 03:50:03;;;;;;;;;;;5.40;99.90;;;;;;4919012;28;93313;-32
2022/11/27 03:52:43;;;;;;;19.58;8.68;;;5.50;99.90;;;;;;4894601;28;95639;-31
2022/11/27 03:55:28;;;;;;;16.85;8.07;;;5.40;99.90;;;;;;4917162;28;95553;-31
2022/11/27 03:58:02;;;;;;;18.75;9.02;;;5.50;99.90;;;;;;4918641;28;93340;-32
2022/11/27 04:00:36;;;;;;;26.75;9.30;;;5.40;99.90;;;;;;4917927;28;93787;-31
2022/11/27 04:03:03;;;;;;;9.95;8.27;;;5.40;99.90;;;;;;4918596;28;94456;-34
2022/11/27 04:05:29;;;;;;;21.63;9.65;;;5.40;99.90;;;;;;4920950;28;94571;-31
2022/11/27 04:07:54;;;;;;;22.42;8.85;;;5.40;99.90;;;;;;4921345;28;94585;-32
2022/11/27 04:10:20;;;;;;;10.95;7.95;;;5.40;99.90;;;;;;4922032;28;93607;-30
2022/11/27 04:12:45;;;;;;;13.95;7.65;;;5.40;99.90;;;;;;4920558;28;94634;-31
2022/11/27 04:15:12;;;;;;;15.15;7.25;;;5.40;99.90;;;;;;4921756;28;94944;-35
2022/11/27 04:17:38;;;;;;;13.98;7.18;;;5.40;99.90;;;;;;4920534;28;93752;-31
2022/11/27 04:20:04;;;;;;;21.05;8.23;;;5.40;99.90;;;;;;4920881;28;93409;-32
2022/11/27 04:22:30;;;;;;;9.90;7.35;;;5.40;99.90;;;;;;4921203;28;94705;-32
2022/11/27 04:24:55;;;;;;;14.13;8.63;;;5.40;99.90;;;;;;4921282;28;95980;-31
2022/11/27 04:27:21;;;;;;;16.92;8.75;;;5.40;99.90;;;;;;4921618;28;93990;-32
2022/11/27 04:29:46;;;;;;;16.70;9.02;;;5.40;99.90;;;;;;4920873;28;92272;-32
2022/11/27 04:32:12;;;;;;;14.20;7.68;;;5.40;99.90;;;;;;4920882;28;94585;-32
2022/11/27 04:34:38;;;;;;;16.05;7.60;;;5.30;99.90;;;;;;4920542;28;94656;-35
2022/11/27 04:37:03;;;;;;;13.65;8.07;;;5.40;99.90;;;;;;4921155;28;94519;-30
2022/11/27 04:39:29;;;;;;;12.52;7.57;;;5.40;99.90;;;;;;4920848;28;92625;-33
2022/11/27 04:41:55;;;;;;;16.08;8.52;;;5.40;99.90;;;;;;4920247;28;95716;-32
2022/11/27 04:44:21;;;;;;;9.48;7.15;;;5.40;99.90;;;;;;4912657;28;95354;-34
2022/11/27 04:46:48;;;;;;;10.85;6.20;;;5.40;99.90;;;;;;4921532;28;94249;-31
2022/11/27 04:49:14;;;;;;;8.95;7.10;;;5.40;99.90;;;;;;4920852;28;93369;-33
2022/11/27 04:51:39;;;;;;;12.65;7.80;;;5.40;99.90;;;;;;4920826;28;94758;-31
2022/11/27 04:54:05;;;;;;;11.60;7.57;;;5.40;99.90;;;;;;4920625;28;95032;-32
2022/11/27 04:56:30;;;;;;;17.67;7.93;;;5.30;99.90;;;;;;4920556;28;92433;-31
2022/11/27 04:58:56;;;;;;;13.25;7.43;;;5.30;99.90;;;;;;4921431;28;92722;-33
2022/11/27 05:01:22;;;;;;;18.23;7.60;;;5.30;99.90;;;;;;4920801;28;94518;-33
2022/11/27 05:03:48;;;;;;;15.57;7.07;;;5.30;99.90;;;;;;4920340;28;94718;-36
2022/11/27 05:06:14;;;;;;;15.70;6.70;;;5.30;99.90;;;;;;4920206;28;94809;-32
2022/11/27 05:08:39;;;;;;;12.38;7.93;;;5.40;99.90;;;;;;4920213;28;94485;-35
2022/11/27 05:11:09;;;;;;;10.90;7.00;;;5.40;99.90;;;;;;4920585;28;94803;-32
2022/11/27 05:13:34;;;;;;;16.17;8.15;;;5.40;99.90;;;;;;4920222;28;94746;-30
2022/11/27 05:16:00;;;;;;;17.00;7.63;;;5.40;99.90;;;;;;4918410;28;92586;-32
2022/11/27 05:18:26;;;;;;;10.35;6.97;;;5.40;99.90;;;;;;4920238;28;93239;-34
2022/11/27 05:20:57;;;;;;;16.83;7.35;;;5.40;99.90;;;;;;4920396;28;94845;-34
2022/11/27 05:23:22;;;;;;;15.07;7.70;;;5.30;99.90;;;;;;4920340;28;95006;-31
2022/11/27 05:25:48;;;;;;;9.32;7.18;;;5.30;99.90;;;;;;4920096;28;94266;-34
2022/11/27 05:28:14;;;;;;;11.02;7.32;;;5.30;99.90;;;;;;4920449;28;93709;-32
2022/11/27 05:30:39;;;;;;;10.95;5.93;;;5.30;99.90;;;;;;4919645;28;95804;-31
2022/11/27 05:33:05;;;;;;;17.35;7.95;;;5.20;99.90;;;;;;4920040;28;94855;-34
2022/11/27 05:35:30;;;;;;;22.70;7.82;;;5.30;99.90;;;;;;4919786;28;93706;-32
2022/11/27 05:37:56;;;;;;;9.07;6.55;;;5.20;99.90;;;;;;4919955;28;93666;-31
2022/11/27 05:40:21;;;;;;;10.07;6.38;;;5.20;99.90;;;;;;4919871;28;94769;-32
2022/11/27 05:42:47;;;;;;;11.10;6.70;;;5.20;99.90;;;;;;4920003;28;94881;-31
2022/11/27 05:45:12;;;;;;;10.57;7.00;;;5.20;99.90;;;;;;4920742;28;92524;-31
2022/11/27 05:47:38;;;;;;;12.52;7.15;;;5.20;99.90;;;;;;4918936;28;92126;-32
2022/11/27 05:50:04;;;;;;;14.63;7.80;;;5.20;99.90;;;;;;4919853;28;94878;-34
2022/11/27 05:52:30;;;;;;;11.65;7.22;;;5.10;99.90;;;;;;4919127;28;94105;-29
2022/11/27 05:54:55;;;;;;;12.35;6.22;;;5.10;99.90;;;;;;4920325;28;95958;-35
2022/11/27 05:57:21;;;;;;;10.15;6.22;;;5.10;99.90;;;;;;4919520;28;94433;-33
2022/11/27 05:59:46;;;;;;;13.98;7.80;;;5.10;99.90;;;;;;4918977;28;95221;-33
2022/11/27 06:02:12;;;;;;;14.93;7.47;;;5.10;99.90;;;;;;4920009;28;94381;-30
2022/11/27 06:04:38;;;;;;;11.70;7.13;;;5.10;99.90;;;;;;4919019;28;94315;-31
2022/11/27 06:07:03;;;;;;;14.63;8.88;;;5.10;99.90;;;;;;4919827;28;94475;-33
2022/11/27 06:09:29;;;;;;;12.30;8.07;;;5.20;99.90;;;;;;4918713;28;94855;-32
2022/11/27 06:11:55;;;;;;;9.60;7.15;;;5.10;99.90;;;;;;4919809;28;94387;-34
2022/11/27 06:14:20;;;;;;;9.77;7.05;;;5.10;99.90;;;;;;4919420;28;93560;-34
2022/11/27 06:16:46;;;;;;;12.35;8.02;;;5.20;99.90;;;;;;4918983;28;92673;-33
2022/11/27 06:19:12;;;;;;;11.18;6.88;;;5.20;99.90;;;;;;4918783;28;95601;-34
2022/11/27 06:21:37;;;;;;;13.60;7.70;;;5.20;99.90;;;;;;4919353;28;95172;-31
2022/11/27 06:24:03;;;;;;;8.77;6.97;;;5.20;99.90;;;;;;4919905;28;93061;-31
2022/11/27 06:26:31;;;;;;;10.68;8.43;;;5.20;99.90;;;;;;4918871;28;92211;-34
2022/11/27 06:28:58;;;;;;;15.90;8.32;;;5.20;99.90;;;;;;4918411;28;94654;-34
2022/11/27 06:31:26;;;;;;;10.15;6.82;;;5.30;99.90;;;;;;4919186;28;94609;-36
2022/11/27 06:33:54;;;;;;;12.25;7.47;;;5.20;99.90;;;;;;4919593;28;94647;-34
2022/11/27 06:36:21;;;;;;;13.95;7.68;;;5.20;99.90;;;;;;4920133;28;94041;-31
2022/11/27 06:38:47;;;;;;;14.98;8.48;;;5.20;99.90;;;;;;4918772;28;94335;-32
2022/11/27 06:41:15;;;;;;;11.98;7.85;;;5.20;99.90;;;;;;4918733;28;94287;-35
2022/11/27 06:43:41;;;;;;;;;;;5.20;99.90;;;;;;4919670;28;94224;-33
2022/11/27 06:46:11;;;;;;;11.15;7.00;;;5.10;99.90;;;;;;4920535;28;92524;-34
2022/11/27 06:48:36;;;;;;;10.20;7.78;;;5.10;99.90;;;;;;4917904;28;96133;-32
2022/11/27 06:51:04;;;;;;;10.15;6.68;;;5.10;99.90;;;;;;4919628;28;94533;-31
2022/11/27 06:53:32;;;;;;;11.40;7.75;;;5.10;99.90;;;;;;4918870;28;94194;-33
2022/11/27 06:55:57;;;;;;;9.85;6.72;;;5.10;99.90;;;;;;4919420;28;92183;-33
2022/11/27 06:58:23;;;;;;;13.48;8.15;;;5.10;99.90;;;;;;4918455;28;94758;-32
2022/11/27 07:00:49;;;;;;;8.27;7.00;;;5.10;99.90;;;;;;4918096;28;93649;-32
2022/11/27 07:03:15;;;;;;;13.32;7.70;;;5.10;99.90;;;;;;4919287;28;94129;-31
2022/11/27 07:05:40;;;;;;;11.35;7.93;;;5.10;99.90;;;;;;4918372;28;94110;-35
2022/11/27 07:08:06;;;;;;;12.90;8.40;;;5.10;99.90;;;;;;4917915;28;95417;-33
2022/11/27 07:10:33;;;;;;;17.00;8.85;;;5.20;99.90;;;;;;4918214;28;95150;-33
2022/11/27 07:12:59;;;;;;;12.32;8.50;;;5.10;99.90;;;;;;4919392;28;93380;-33
2022/11/27 07:15:25;;;;;;;17.30;8.18;;;5.10;99.90;;;;;;4917675;28;92193;-33
2022/11/27 07:17:50;;;;;;;15.98;6.80;;;5.10;99.90;;;;;;4918949;28;94965;-32
2022/11/27 07:20:16;;;;;;;13.32;7.88;;;5.20;99.90;;;;;;4918805;28;94598;-32
2022/11/27 07:22:42;;;;;;;9.60;7.80;;;5.20;99.90;;;;;;4918313;28;92881;-32
2022/11/27 07:25:07;;;;;;;10.73;8.23;;;5.20;99.90;;;;;;4919193;28;91377;-31
2022/11/27 07:27:33;;;;;;;9.73;8.18;;;5.20;99.90;;;;;;4917938;28;94646;-32
2022/11/27 07:29:58;;;;;;;10.02;7.50;;;5.20;99.90;;;;;;4918469;28;94495;-31
2022/11/27 07:32:24;;;;;;;11.85;7.70;;;5.20;99.90;;;;;;4918236;28;93491;-32
2022/11/27 07:34:50;;;;;;;12.90;7.82;;;5.20;99.90;;;;;;4917794;28;95340;-31
2022/11/27 07:37:15;;;;;;;9.20;7.38;;;5.20;99.90;;;;;;4918119;28;94845;-32
2022/11/27 07:39:41;;;;;;;10.60;7.82;;;5.20;99.90;;;;;;4916759;28;94115;-32
2022/11/27 07:42:06;;;;;;;10.98;7.70;;;5.20;99.90;;;;;;4919407;28;93435;-33
2022/11/27 07:44:32;;;;;;;11.82;8.32;;;5.20;99.90;;;;;;4917704;28;92999;-32
2022/11/27 07:46:57;;;;;;;13.65;9.18;;;5.20;99.90;;;;;;4918598;28;95345;-33
2022/11/27 07:49:23;;;;;;;10.57;8.52;;;5.10;99.90;;;;;;4918067;28;95696;-34
2022/11/27 07:51:49;;;;;;;16.73;8.23;;;5.20;99.90;;;;;;4915760;28;94349;-32
2022/11/27 07:54:14;;;;;;;13.18;8.57;;;5.20;99.90;;;;;;4912248;28;93310;-31
2022/11/27 07:56:40;;;;;;;11.15;8.07;;;5.20;99.90;;;;;;4914377;28;95625;-32
2022/11/27 07:59:05;;;;;;;10.23;8.43;;;5.20;99.90;;;;;;4909682;28;95630;-34
2022/11/27 08:01:31;;;;;;;10.63;7.95;;;5.20;99.90;;;;;;4915055;28;94543;-32
2022/11/27 08:03:56;;;;;;;14.95;7.47;;;5.20;99.90;;;;;;4912293;28;93196;-33
2022/11/27 08:06:25;;;;;;;11.77;8.00;;;5.20;99.90;;;;;;4912887;28;94673;-33
2022/11/27 08:08:51;;;;;;;10.65;9.23;;;5.20;99.90;;;;;;4911765;28;95077;-31
2022/11/27 08:11:19;;;;;;;12.73;9.23;;;5.20;99.90;;;;;;4902360;28;92605;-33
2022/11/27 08:13:45;;;;;;;8.63;7.72;;;5.20;99.90;;;;;;4916198;28;92938;-32
2022/11/27 08:16:11;;;;;;;11.85;8.20;;;5.30;99.90;;;;;;4912290;28;95006;-33
2022/11/27 08:18:36;;;;;;;12.93;8.70;;;5.30;99.90;;;;;;4912765;28;94253;-35
2022/11/27 08:21:02;;;;;;;13.45;9.20;;;5.30;99.90;;;;;;4914574;28;94977;-33
2022/11/27 08:23:27;;;;;;;19.38;9.18;;;5.30;99.90;;;;;;4909590;28;93597;-35
2022/11/27 08:25:53;;;;;;;10.18;8.48;;;5.30;99.90;;;;;;4913959;28;95013;-31
2022/11/27 08:28:19;;;;;;;13.10;10.30;;;5.40;99.90;;;;;;4917297;28;94124;-31
2022/11/27 08:30:44;;;;;;;16.75;8.52;;;5.50;99.90;;;;;;4918065;28;93834;-34
2022/11/27 08:33:12;;;;;;;18.00;9.55;;;5.50;99.90;;;;;;4918122;28;94662;-33
2022/11/27 08:35:37;;;;;;;10.25;8.18;;;5.50;99.90;;;;;;4916927;28;94718;-34
2022/11/27 08:38:03;;;;;;;14.10;9.10;;;5.60;99.90;;;;;;4918072;28;94888;-36
2022/11/27 08:40:28;;;;;;;12.98;8.57;;;5.50;99.90;;;;;;4917429;28;94294;-35
2022/11/27 08:42:54;;;;;;;12.43;8.73;;;5.50;99.90;;;;;;4917990;28;92483;-32
2022/11/27 08:45:20;;;;;;;11.23;7.53;;;5.50;99.90;;;;;;4916804;28;96034;-34
2022/11/27 08:47:45;;;;;;;9.65;7.95;;;5.50;99.90;;;;;;4917217;28;95650;-34
2022/11/27 08:50:11;;;;;;;12.52;7.93;;;5.60;99.90;;;;;;4923540;28;93965;-33
2022/11/27 08:52:36;;;;;;;10.05;7.90;;;5.60;99.90;;;;;;4920306;28;93174;-34
2022/11/27 08:55:02;;;;;;;14.10;8.68;;;5.60;99.90;;;;;;4921253;28;94680;-32
2022/11/27 08:57:28;;;;;;;11.50;8.10;;;5.60;99.90;;;;;;4919894;28;95125;-34
2022/11/27 08:59:53;;;;;;;17.40;8.85;;;5.60;99.90;;;;;;4921383;28;93594;-34
2022/11/27 09:02:19;;;;;;;12.07;7.90;;;5.60;99.90;;;;;;4921165;28;91326;-33
2022/11/27 09:04:44;;;;;;;14.70;8.07;;;5.70;99.90;;;;;;4919301;28;94673;-33
2022/11/27 09:07:13;;;;;;;10.60;8.10;;;5.70;99.90;;;;;;4915408;28;94586;-32
2022/11/27 09:09:38;;;;;;;13.75;8.40;;;5.70;99.90;;;;;;4916499;28;94090;-35
2022/11/27 09:12:04;;;;;;;12.02;8.30;;;5.70;99.90;;;;;;4916519;28;92217;-34
2022/11/27 09:14:30;;;;;;;12.45;8.82;;;5.70;99.90;;;;;;4913622;28;96166;-34
2022/11/27 09:16:55;;;;;;;11.68;8.43;;;5.80;99.90;;;;;;4957005;23;94488;-33
2022/11/27 09:19:21;;;;;;;11.80;8.98;;;5.80;99.90;;;;;;4940344;28;93798;-36
2022/11/27 09:21:49;;;;;;;11.65;8.27;;;5.80;99.90;;;;;;4941409;28;92320;-33
2022/11/27 09:24:14;;;;;;;9.00;7.07;;;5.80;99.90;;;;;;4945747;28;94978;-33
2022/11/27 09:26:40;;;;;;;12.48;8.13;;;5.80;99.90;;;;;;4940448;28;95251;-32
2022/11/27 09:29:05;;;;;;;14.00;8.90;;;5.80;99.90;;;;;;4939772;28;93581;-32
2022/11/27 09:31:31;;;;;;;18.90;9.80;;;5.80;99.90;;;;;;4937670;28;94227;-35
2022/11/27 09:33:58;;;;;;;11.25;8.35;;;5.80;99.90;;;;;;4938696;28;95576;-32
2022/11/27 09:36:24;;;;;;;12.80;9.80;;;5.80;99.90;;;;;;4939725;28;95977;-37
2022/11/27 09:38:51;;;;;;;11.32;8.82;;;5.80;99.90;;;;;;4939326;28;92184;-32
2022/11/27 09:41:40;;;;;;;15.65;8.95;;;5.80;99.90;;;;;;4939408;28;94357;-34
2022/11/27 09:44:39;;;;;;;14.77;10.05;;;5.80;99.90;;;;;;4939566;28;94502;-35
2022/11/27 09:47:25;;;;;;;13.25;8.82;;;5.80;99.90;;;;;;4939192;28;94750;-34
2022/11/27 09:50:05;;;;;;;10.57;9.48;;;5.80;99.90;;;;;;4927042;28;93142;-34
2022/11/27 09:52:46;;;;;;;10.73;8.50;;;5.70;99.90;;;;;;4937736;28;93562;-32
2022/11/27 09:55:31;;;;;;;10.73;8.63;;;5.70;99.90;;;;;;4939922;28;95126;-35
2022/11/27 09:58:14;;;;;;;14.20;10.48;;;5.70;99.90;;;;;;4938994;28;94827;-33
2022/11/27 10:00:41;;;;;;;15.50;9.73;;;5.70;99.90;;;;;;4936720;28;94542;-33
2022/11/27 10:03:13;;;;;;;12.07;9.38;;;5.70;99.90;;;;;;4945800;28;93358;-32
2022/11/27 10:05:47;;;;;;;12.43;10.05;;;5.70;99.90;;;;;;4938321;28;95639;-33
2022/11/27 10:08:41;;;;;;;11.40;9.07;;;5.70;99.90;;;;;;4941406;28;94749;-34
2022/11/27 10:11:28;;;;;;;13.27;10.48;;;5.70;99.90;;;;;;4944665;28;93128;-32
2022/11/27 10:14:33;;;;;;;10.05;9.05;;;5.60;99.90;;;;;;4943497;28;93320;-34
2022/11/27 10:17:12;;;;;;;13.90;10.65;;;5.70;99.90;;;;;;4915950;28;94792;-31
2022/11/27 10:19:44;;;;;;;16.90;11.52;;;5.60;99.90;;;;;;4944510;28;94919;-33
2022/11/27 10:22:35;;;;;;;20.73;11.65;;;5.60;99.90;;;;;;4941259;28;92196;-34
2022/11/27 10:25:16;;;;;;;13.32;11.10;;;5.60;99.90;;;;;;4937598;28;93935;-41
2022/11/27 10:28:07;;;;;;;18.15;11.10;;;5.60;99.90;;;;;;4941397;28;95706;-34
2022/11/27 10:30:38;;;;;;;14.38;10.65;;;5.60;99.90;;;;;;4925037;28;95706;-34
2022/11/27 10:33:14;;;;;;;17.65;11.15;;;5.60;99.90;;;;;;4943276;28;93041;-34
2022/11/27 10:35:44;;;;;;;17.70;10.40;;;5.60;99.90;;;;;;4940114;28;93348;-32
2022/11/27 10:38:16;;;;;;;18.83;12.73;;;5.60;99.90;;;;;;4939313;28;95894;-31
2022/11/27 10:41:10;;;;;;;23.98;15.10;;;5.60;99.90;;;;;;4937411;28;94116;-32
2022/11/27 10:43:35;;;;;;;15.90;12.30;;;5.60;99.90;;;;;;4938724;28;93688;-33
2022/11/27 10:46:20;;;;;;;15.20;10.93;;;5.60;99.90;;;;;;4938622;28;91564;-34
2022/11/27 10:48:45;;;;;;;17.80;11.63;;;5.60;99.90;;;;;;4934966;28;95817;-35
2022/11/27 10:51:17;;;;;;;12.93;10.48;;;5.60;99.90;;;;;;4933601;28;94909;-32
2022/11/27 10:53:46;;;;;;;15.25;10.02;;;5.70;99.90;;;;;;4933383;28;95338;-31
2022/11/27 10:56:13;;;;;;;19.75;11.70;;;5.70;99.90;;;;;;4935467;28;92928;-32
2022/11/27 10:58:45;;;;;;;14.93;10.35;;;5.70;99.90;;;;;;4935271;28;94484;-36
2022/11/27 11:01:13;;;;;;;16.45;10.52;;;5.60;99.90;;;;;;4935645;28;95030;-34
2022/11/27 11:03:39;;;;;;;;;;;5.60;99.90;;;;;;4935648;28;93702;-33
2022/11/27 11:06:17;;;;;;;17.27;9.68;;;5.70;99.90;;;;;;4937120;28;93352;-31
2022/11/27 11:08:42;;;;;;;14.80;11.10;;;5.70;99.90;;;;;;4935670;28;96312;-34
2022/11/27 11:11:09;;;;;;;17.63;11.38;;;5.70;99.90;;;;;;4935223;28;94422;-33
2022/11/27 11:13:40;;;;;;;13.38;11.75;;;5.80;99.90;;;;;;4934425;28;94545;-32
2022/11/27 11:16:17;;;;;;;15.00;11.73;;;5.80;99.90;;;;;;4934663;28;94275;-32
2022/11/27 11:18:49;;;;;;;16.95;12.02;;;5.70;99.90;;;;;;4934234;28;95779;-34
2022/11/27 11:21:25;;;;;;;17.15;12.85;;;5.80;99.90;;;;;;4935206;28;95644;-32
2022/11/27 11:24:02;;;;;;;15.30;12.15;;;5.80;99.90;;;;;;4935503;28;93410;-32
2022/11/27 11:26:37;;;;;;;18.67;11.07;;;5.80;99.90;;;;;;4935029;28;95003;-33
2022/11/27 11:29:16;;;;;;;15.80;12.35;;;5.80;99.90;;;;;;4935363;28;94118;-34
2022/11/27 11:31:43;;;;;;;18.88;10.75;;;5.80;99.90;;;;;;4934783;28;94518;-33
2022/11/27 11:34:21;;;;;;;16.60;11.25;;;5.80;99.90;;;;;;4936876;28;92756;-33
2022/11/27 11:36:58;;;;;;;17.70;12.80;;;5.90;99.90;;;;;;4934586;28;91433;-34
2022/11/27 11:39:43;;;;;;;16.38;12.18;;;5.80;99.90;;;;;;4941072;28;95080;-34
2022/11/27 11:42:20;;;;;;;17.20;11.98;;;5.90;99.90;;;;;;4943363;28;94719;-33
2022/11/27 11:44:51;;;;;;;15.60;11.43;;;5.90;99.90;;;;;;4940643;28;95770;-33
2022/11/27 11:47:20;;;;;;;16.42;12.55;;;5.90;99.90;;;;;;4945492;28;92404;-33
2022/11/27 11:49:46;;;;;;;15.68;10.95;;;6.00;99.90;;;;;;4935958;28;93751;-36
2022/11/27 11:52:27;;;;;;;14.10;11.20;;;6.00;99.90;;;;;;4935429;28;94448;-32
2022/11/27 11:55:40;;;;;;;17.38;12.07;;;6.00;99.90;;;;;;4949824;28;93741;-35
2022/11/27 11:58:09;;;;;;;17.00;12.13;;;6.00;99.90;;;;;;4885200;28;93000;-33
2022/11/27 12:00:41;;;;;;;15.70;11.48;;;6.00;99.90;;;;;;4892851;28;94482;-34
2022/11/27 12:03:17;;;;;;;14.95;12.63;;;6.00;99.90;;;;;;4911818;28;94819;-35
2022/11/27 12:05:58;;;;;;;15.55;11.60;;;6.00;99.90;;;;;;4941841;28;92906;-31
2022/11/27 12:08:38;;;;;;;16.33;12.50;;;6.00;99.90;;;;;;4946880;28;92959;-36
2022/11/27 12:11:17;;;;;;;17.58;12.75;;;6.10;99.90;;;;;;4947011;28;96025;-32
2022/11/27 12:13:46;;;;;;;14.73;10.95;;;6.10;99.90;;;;;;4943234;28;97180;-33
2022/11/27 12:16:17;;;;;;;18.27;12.55;;;6.10;99.90;;;;;;4944620;28;92121;-32
2022/11/27 12:19:19;;;;;;;18.55;12.32;;;6.10;99.90;;;;;;4948829;28;93208;-33
2022/11/27 12:22:05;;;;;;;15.90;12.20;;;6.10;99.90;;;;;;4931903;28;94803;-34
2022/11/27 12:24:49;;;;;;;15.32;12.88;;;6.10;99.90;;;;;;4939895;28;94603;-35
2022/11/27 12:27:41;;;;;;;17.98;12.63;;;6.20;99.90;;;;;;4944975;28;93244;-35
2022/11/27 12:30:17;;;;;;;19.92;12.32;;;6.20;99.90;;;;;;4940365;28;92685;-32
2022/11/27 12:33:04;;;;;;;16.35;12.10;;;6.20;99.90;;;;;;4939433;28;95218;-31
2022/11/27 12:35:33;;;;;;;17.37;11.53;;;6.30;99.90;;;;;;4938718;28;94257;-35
2022/11/27 12:38:37;;;;;;;15.23;11.25;;;6.30;99.90;;;;;;4939682;28;94002;-35
2022/11/27 12:41:44;;;;;;;16.55;11.35;;;6.30;99.90;;;;;;4879030;28;93028;-35
2022/11/27 12:44:19;;;;;;;15.70;10.48;;;6.30;99.90;;;;;;4939897;28;95183;-36
2022/11/27 12:47:11;;;;;;;24.73;12.70;;;6.30;99.90;;;;;;4937859;28;96385;-35
2022/11/27 12:49:49;;;;;;;16.30;13.20;;;6.30;99.90;;;;;;4940728;28;93304;-32
2022/11/27 12:52:21;;;;;;;15.80;12.40;;;6.30;99.90;;;;;;4940611;28;94047;-34
2022/11/27 12:54:55;;;;;;;21.75;12.77;;;6.40;99.90;;;;;;4939078;28;95323;-36
2022/11/27 12:57:39;;;;;;;13.18;10.55;;;6.40;99.90;;;;;;4939531;28;95251;-33
2022/11/27 13:00:18;;;;;;;16.77;12.20;;;6.40;99.90;;;;;;4939751;28;94231;-35
2022/11/27 13:03:12;;;;;;;15.85;12.18;;;6.40;99.90;;;;;;4941987;28;93013;-34